sensor_id;sensor_type;location;lat;lon;timestamp;P1;durP1;ratioP1;P2;durP2;ratioP2
64903;SDS011;51401;48.882;12.598;2023-05-06T00:01:46;5.60;;;4.68;;
64903;SDS011;51401;48.882;12.598;2023-05-06T00:04:11;6.80;;;4.80;;
64903;SDS011;51401;48.882;12.598;2023-05-06T00:06:36;5.97;;;4.78;;
64903;SDS011;51401;48.882;12.598;2023-05-06T00:09:02;6.13;;;4.65;;
64903;SDS011;51401;48.882;12.598;2023-05-06T00:11:28;5.53;;;4.47;;
64903;SDS011;51401;48.882;12.598;2023-05-06T00:13:53;7.03;;;5.50;;
64903;SDS011;51401;48.882;12.598;2023-05-06T00:16:18;6.85;;;5.68;;
64903;SDS011;51401;48.882;12.598;2023-05-06T00:18:44;7.40;;;6.20;;
64903;SDS011;51401;48.882;12.598;2023-05-06T00:21:09;7.30;;;6.20;;
64903;SDS011;51401;48.882;12.598;2023-05-06T00:23:35;8.70;;;6.65;;
64903;SDS011;51401;48.882;12.598;2023-05-06T00:26:00;8.20;;;6.85;;
64903;SDS011;51401;48.882;12.598;2023-05-06T00:28:25;7.10;;;6.40;;
64903;SDS011;51401;48.882;12.598;2023-05-06T00:30:51;8.93;;;6.70;;
64903;SDS011;51401;48.882;12.598;2023-05-06T00:33:16;7.97;;;6.50;;
64903;SDS011;51401;48.882;12.598;2023-05-06T00:35:41;7.25;;;5.95;;
64903;SDS011;51401;48.882;12.598;2023-05-06T00:38:08;7.20;;;5.72;;
64903;SDS011;51401;48.882;12.598;2023-05-06T00:40:35;6.95;;;5.88;;
64903;SDS011;51401;48.882;12.598;2023-05-06T00:43:01;8.00;;;6.45;;
64903;SDS011;51401;48.882;12.598;2023-05-06T00:45:27;7.97;;;6.60;;
64903;SDS011;51401;48.882;12.598;2023-05-06T00:47:52;8.68;;;7.22;;
64903;SDS011;51401;48.882;12.598;2023-05-06T00:50:19;7.55;;;5.82;;
64903;SDS011;51401;48.882;12.598;2023-05-06T00:52:45;7.75;;;6.40;;
64903;SDS011;51401;48.882;12.598;2023-05-06T00:55:10;7.25;;;5.57;;
64903;SDS011;51401;48.882;12.598;2023-05-06T00:57:36;6.70;;;6.00;;
64903;SDS011;51401;48.882;12.598;2023-05-06T01:00:01;9.75;;;6.30;;
64903;SDS011;51401;48.882;12.598;2023-05-06T01:02:27;9.00;;;6.50;;
64903;SDS011;51401;48.882;12.598;2023-05-06T01:04:52;7.70;;;5.57;;
64903;SDS011;51401;48.882;12.598;2023-05-06T01:07:22;8.15;;;6.53;;
64903;SDS011;51401;48.882;12.598;2023-05-06T01:10:01;7.90;;;6.70;;
64903;SDS011;51401;48.882;12.598;2023-05-06T01:18:03;8.15;;;6.57;;
64903;SDS011;51401;48.882;12.598;2023-05-06T01:20:34;9.48;;;8.10;;
64903;SDS011;51401;48.882;12.598;2023-05-06T01:23:00;8.93;;;7.28;;
64903;SDS011;51401;48.882;12.598;2023-05-06T01:25:26;9.60;;;7.22;;
64903;SDS011;51401;48.882;12.598;2023-05-06T01:27:54;10.00;;;7.90;;
64903;SDS011;51401;48.882;12.598;2023-05-06T01:30:19;10.88;;;8.27;;
64903;SDS011;51401;48.882;12.598;2023-05-06T01:35:39;10.98;;;8.27;;
64903;SDS011;51401;48.882;12.598;2023-05-06T01:40:41;9.18;;;7.70;;
64903;SDS011;51401;48.882;12.598;2023-05-06T01:43:09;10.15;;;8.30;;
64903;SDS011;51401;48.882;12.598;2023-05-06T01:45:36;10.23;;;8.77;;
64903;SDS011;51401;48.882;12.598;2023-05-06T01:48:04;12.07;;;9.50;;
64903;SDS011;51401;48.882;12.598;2023-05-06T01:50:30;14.32;;;8.43;;
64903;SDS011;51401;48.882;12.598;2023-05-06T01:53:00;10.82;;;8.48;;
64903;SDS011;51401;48.882;12.598;2023-05-06T01:55:26;13.70;;;9.95;;
64903;SDS011;51401;48.882;12.598;2023-05-06T01:57:53;11.73;;;8.63;;
64903;SDS011;51401;48.882;12.598;2023-05-06T02:00:18;10.10;;;8.68;;
64903;SDS011;51401;48.882;12.598;2023-05-06T02:02:44;11.15;;;9.35;;
64903;SDS011;51401;48.882;12.598;2023-05-06T02:05:09;13.65;;;9.57;;
64903;SDS011;51401;48.882;12.598;2023-05-06T02:07:35;11.38;;;9.20;;
64903;SDS011;51401;48.882;12.598;2023-05-06T02:10:00;10.77;;;8.68;;
64903;SDS011;51401;48.882;12.598;2023-05-06T02:12:25;12.52;;;9.60;;
64903;SDS011;51401;48.882;12.598;2023-05-06T02:14:50;13.23;;;10.07;;
64903;SDS011;51401;48.882;12.598;2023-05-06T02:17:16;13.00;;;9.70;;
64903;SDS011;51401;48.882;12.598;2023-05-06T02:19:41;11.80;;;9.63;;
64903;SDS011;51401;48.882;12.598;2023-05-06T02:22:06;13.27;;;9.47;;
64903;SDS011;51401;48.882;12.598;2023-05-06T02:24:31;12.30;;;10.30;;
64903;SDS011;51401;48.882;12.598;2023-05-06T02:26:57;11.40;;;9.35;;
64903;SDS011;51401;48.882;12.598;2023-05-06T02:29:22;13.73;;;10.45;;
64903;SDS011;51401;48.882;12.598;2023-05-06T02:31:47;11.60;;;10.13;;
64903;SDS011;51401;48.882;12.598;2023-05-06T02:34:12;12.07;;;9.98;;
64903;SDS011;51401;48.882;12.598;2023-05-06T02:36:38;13.85;;;11.15;;
64903;SDS011;51401;48.882;12.598;2023-05-06T02:39:03;15.13;;;11.75;;
64903;SDS011;51401;48.882;12.598;2023-05-06T02:41:28;17.73;;;11.40;;
64903;SDS011;51401;48.882;12.598;2023-05-06T02:43:54;14.82;;;11.65;;
64903;SDS011;51401;48.882;12.598;2023-05-06T02:46:19;15.18;;;11.20;;
64903;SDS011;51401;48.882;12.598;2023-05-06T02:48:45;17.48;;;11.70;;
64903;SDS011;51401;48.882;12.598;2023-05-06T02:51:10;16.13;;;12.15;;
64903;SDS011;51401;48.882;12.598;2023-05-06T02:53:35;16.10;;;12.57;;
64903;SDS011;51401;48.882;12.598;2023-05-06T02:56:01;15.82;;;12.00;;
64903;SDS011;51401;48.882;12.598;2023-05-06T02:58:26;15.23;;;11.57;;
64903;SDS011;51401;48.882;12.598;2023-05-06T03:00:51;16.67;;;12.18;;
64903;SDS011;51401;48.882;12.598;2023-05-06T03:03:16;16.80;;;11.97;;
64903;SDS011;51401;48.882;12.598;2023-05-06T03:05:42;18.25;;;12.57;;
64903;SDS011;51401;48.882;12.598;2023-05-06T03:08:07;13.35;;;11.30;;
64903;SDS011;51401;48.882;12.598;2023-05-06T03:10:32;16.85;;;13.05;;
64903;SDS011;51401;48.882;12.598;2023-05-06T03:12:58;16.63;;;12.48;;
64903;SDS011;51401;48.882;12.598;2023-05-06T03:15:23;14.68;;;11.18;;
64903;SDS011;51401;48.882;12.598;2023-05-06T03:17:48;15.50;;;11.38;;
64903;SDS011;51401;48.882;12.598;2023-05-06T03:20:14;19.33;;;12.63;;
64903;SDS011;51401;48.882;12.598;2023-05-06T03:22:39;17.85;;;11.80;;
64903;SDS011;51401;48.882;12.598;2023-05-06T03:25:06;14.80;;;11.95;;
64903;SDS011;51401;48.882;12.598;2023-05-06T03:27:32;18.90;;;12.00;;
64903;SDS011;51401;48.882;12.598;2023-05-06T03:29:57;18.02;;;12.88;;
64903;SDS011;51401;48.882;12.598;2023-05-06T03:32:22;16.40;;;12.35;;
64903;SDS011;51401;48.882;12.598;2023-05-06T03:34:47;17.05;;;12.52;;
64903;SDS011;51401;48.882;12.598;2023-05-06T03:37:13;19.02;;;13.13;;
64903;SDS011;51401;48.882;12.598;2023-05-06T03:39:38;17.33;;;13.43;;
64903;SDS011;51401;48.882;12.598;2023-05-06T03:42:03;16.15;;;12.27;;
64903;SDS011;51401;48.882;12.598;2023-05-06T03:44:28;17.52;;;12.98;;
64903;SDS011;51401;48.882;12.598;2023-05-06T03:46:54;17.15;;;12.57;;
64903;SDS011;51401;48.882;12.598;2023-05-06T03:49:19;17.13;;;13.10;;
64903;SDS011;51401;48.882;12.598;2023-05-06T03:51:45;17.35;;;13.40;;
64903;SDS011;51401;48.882;12.598;2023-05-06T03:54:10;19.20;;;13.07;;
64903;SDS011;51401;48.882;12.598;2023-05-06T03:56:35;19.85;;;13.45;;
64903;SDS011;51401;48.882;12.598;2023-05-06T03:59:01;17.05;;;12.93;;
64903;SDS011;51401;48.882;12.598;2023-05-06T04:01:26;15.88;;;12.15;;
64903;SDS011;51401;48.882;12.598;2023-05-06T04:03:51;20.35;;;13.88;;
64903;SDS011;51401;48.882;12.598;2023-05-06T04:06:18;18.25;;;12.73;;
64903;SDS011;51401;48.882;12.598;2023-05-06T04:08:43;17.50;;;13.18;;
64903;SDS011;51401;48.882;12.598;2023-05-06T04:11:09;18.70;;;12.73;;
64903;SDS011;51401;48.882;12.598;2023-05-06T04:13:34;19.58;;;13.23;;
64903;SDS011;51401;48.882;12.598;2023-05-06T04:15:59;16.88;;;12.65;;
64903;SDS011;51401;48.882;12.598;2023-05-06T04:18:25;18.58;;;13.27;;
64903;SDS011;51401;48.882;12.598;2023-05-06T04:20:50;17.38;;;13.13;;
64903;SDS011;51401;48.882;12.598;2023-05-06T04:23:15;18.05;;;12.88;;
64903;SDS011;51401;48.882;12.598;2023-05-06T04:25:41;19.00;;;13.32;;
64903;SDS011;51401;48.882;12.598;2023-05-06T04:28:09;17.98;;;12.43;;
64903;SDS011;51401;48.882;12.598;2023-05-06T04:30:35;19.75;;;13.55;;
64903;SDS011;51401;48.882;12.598;2023-05-06T04:33:01;20.30;;;14.10;;
64903;SDS011;51401;48.882;12.598;2023-05-06T04:35:27;15.85;;;11.75;;
64903;SDS011;51401;48.882;12.598;2023-05-06T04:37:53;18.33;;;13.57;;
64903;SDS011;51401;48.882;12.598;2023-05-06T04:40:18;24.52;;;13.90;;
64903;SDS011;51401;48.882;12.598;2023-05-06T04:42:43;19.52;;;13.88;;
64903;SDS011;51401;48.882;12.598;2023-05-06T04:45:09;18.85;;;13.25;;
64903;SDS011;51401;48.882;12.598;2023-05-06T04:47:35;20.17;;;14.02;;
64903;SDS011;51401;48.882;12.598;2023-05-06T04:50:01;20.38;;;13.65;;
64903;SDS011;51401;48.882;12.598;2023-05-06T04:52:26;18.17;;;12.80;;
64903;SDS011;51401;48.882;12.598;2023-05-06T04:54:51;21.45;;;13.25;;
64903;SDS011;51401;48.882;12.598;2023-05-06T04:57:16;21.98;;;13.68;;
64903;SDS011;51401;48.882;12.598;2023-05-06T04:59:42;20.30;;;14.07;;
64903;SDS011;51401;48.882;12.598;2023-05-06T05:02:07;21.77;;;13.75;;
64903;SDS011;51401;48.882;12.598;2023-05-06T05:04:32;22.38;;;14.50;;
64903;SDS011;51401;48.882;12.598;2023-05-06T05:06:58;22.95;;;13.60;;
64903;SDS011;51401;48.882;12.598;2023-05-06T05:09:23;22.60;;;14.52;;
64903;SDS011;51401;48.882;12.598;2023-05-06T05:11:48;20.52;;;13.93;;
64903;SDS011;51401;48.882;12.598;2023-05-06T05:14:14;19.45;;;13.27;;
64903;SDS011;51401;48.882;12.598;2023-05-06T05:16:39;19.65;;;14.07;;
64903;SDS011;51401;48.882;12.598;2023-05-06T05:19:04;22.80;;;14.63;;
64903;SDS011;51401;48.882;12.598;2023-05-06T05:21:30;17.42;;;12.52;;
64903;SDS011;51401;48.882;12.598;2023-05-06T05:23:55;19.00;;;13.40;;
64903;SDS011;51401;48.882;12.598;2023-05-06T05:26:20;19.90;;;13.37;;
64903;SDS011;51401;48.882;12.598;2023-05-06T05:28:46;21.92;;;14.45;;
64903;SDS011;51401;48.882;12.598;2023-05-06T05:31:11;22.05;;;13.70;;
64903;SDS011;51401;48.882;12.598;2023-05-06T05:33:36;20.50;;;13.70;;
64903;SDS011;51401;48.882;12.598;2023-05-06T05:36:02;20.15;;;13.63;;
64903;SDS011;51401;48.882;12.598;2023-05-06T05:38:28;19.58;;;12.63;;
64903;SDS011;51401;48.882;12.598;2023-05-06T05:40:53;18.63;;;12.80;;
64903;SDS011;51401;48.882;12.598;2023-05-06T05:43:18;18.47;;;13.30;;
64903;SDS011;51401;48.882;12.598;2023-05-06T05:45:45;17.60;;;13.23;;
64903;SDS011;51401;48.882;12.598;2023-05-06T05:48:11;17.85;;;13.80;;
64903;SDS011;51401;48.882;12.598;2023-05-06T05:50:36;20.45;;;13.00;;
64903;SDS011;51401;48.882;12.598;2023-05-06T05:53:02;19.17;;;13.90;;
64903;SDS011;51401;48.882;12.598;2023-05-06T05:55:27;19.63;;;13.60;;
64903;SDS011;51401;48.882;12.598;2023-05-06T05:57:53;17.42;;;12.32;;
64903;SDS011;51401;48.882;12.598;2023-05-06T06:00:19;16.98;;;12.32;;
64903;SDS011;51401;48.882;12.598;2023-05-06T06:02:44;17.30;;;13.10;;
64903;SDS011;51401;48.882;12.598;2023-05-06T06:05:10;16.50;;;12.18;;
64903;SDS011;51401;48.882;12.598;2023-05-06T06:07:35;17.33;;;12.38;;
64903;SDS011;51401;48.882;12.598;2023-05-06T06:10:00;16.48;;;11.68;;
64903;SDS011;51401;48.882;12.598;2023-05-06T06:12:25;14.97;;;10.97;;
64903;SDS011;51401;48.882;12.598;2023-05-06T06:14:51;15.85;;;11.57;;
64903;SDS011;51401;48.882;12.598;2023-05-06T06:17:16;15.30;;;11.50;;
64903;SDS011;51401;48.882;12.598;2023-05-06T06:19:43;16.40;;;12.02;;
64903;SDS011;51401;48.882;12.598;2023-05-06T06:22:10;16.40;;;11.60;;
64903;SDS011;51401;48.882;12.598;2023-05-06T06:24:36;15.05;;;10.85;;
64903;SDS011;51401;48.882;12.598;2023-05-06T06:27:01;13.52;;;10.45;;
64903;SDS011;51401;48.882;12.598;2023-05-06T06:29:26;12.52;;;9.38;;
64903;SDS011;51401;48.882;12.598;2023-05-06T06:31:52;9.48;;;8.25;;
64903;SDS011;51401;48.882;12.598;2023-05-06T06:34:19;12.23;;;9.48;;
64903;SDS011;51401;48.882;12.598;2023-05-06T06:36:45;11.27;;;8.73;;
64903;SDS011;51401;48.882;12.598;2023-05-06T06:39:10;12.23;;;9.52;;
64903;SDS011;51401;48.882;12.598;2023-05-06T06:41:36;12.15;;;9.82;;
64903;SDS011;51401;48.882;12.598;2023-05-06T06:44:02;12.65;;;10.27;;
64903;SDS011;51401;48.882;12.598;2023-05-06T06:46:27;10.30;;;8.10;;
64903;SDS011;51401;48.882;12.598;2023-05-06T06:48:52;9.90;;;7.70;;
64903;SDS011;51401;48.882;12.598;2023-05-06T06:51:18;10.57;;;7.55;;
64903;SDS011;51401;48.882;12.598;2023-05-06T06:53:43;9.40;;;7.15;;
64903;SDS011;51401;48.882;12.598;2023-05-06T06:56:09;8.15;;;6.85;;
64903;SDS011;51401;48.882;12.598;2023-05-06T06:58:38;8.95;;;7.28;;
64903;SDS011;51401;48.882;12.598;2023-05-06T07:01:03;9.20;;;7.57;;
64903;SDS011;51401;48.882;12.598;2023-05-06T07:03:29;8.90;;;7.60;;
64903;SDS011;51401;48.882;12.598;2023-05-06T07:05:54;8.77;;;7.55;;
64903;SDS011;51401;48.882;12.598;2023-05-06T07:08:19;9.37;;;7.00;;
64903;SDS011;51401;48.882;12.598;2023-05-06T07:10:46;7.50;;;6.50;;
64903;SDS011;51401;48.882;12.598;2023-05-06T07:13:11;7.47;;;6.35;;
64903;SDS011;51401;48.882;12.598;2023-05-06T07:15:37;7.57;;;6.75;;
64903;SDS011;51401;48.882;12.598;2023-05-06T07:18:02;8.37;;;5.97;;
64903;SDS011;51401;48.882;12.598;2023-05-06T07:20:27;7.23;;;6.53;;
64903;SDS011;51401;48.882;12.598;2023-05-06T07:22:52;7.70;;;6.53;;
64903;SDS011;51401;48.882;12.598;2023-05-06T07:25:18;7.10;;;6.38;;
64903;SDS011;51401;48.882;12.598;2023-05-06T07:27:43;6.47;;;5.88;;
64903;SDS011;51401;48.882;12.598;2023-05-06T07:30:08;8.23;;;6.67;;
64903;SDS011;51401;48.882;12.598;2023-05-06T07:32:34;7.45;;;6.55;;
64903;SDS011;51401;48.882;12.598;2023-05-06T07:34:59;7.43;;;6.57;;
64903;SDS011;51401;48.882;12.598;2023-05-06T07:37:25;7.78;;;6.45;;
64903;SDS011;51401;48.882;12.598;2023-05-06T07:39:51;6.60;;;5.90;;
64903;SDS011;51401;48.882;12.598;2023-05-06T07:42:16;6.93;;;5.63;;
64903;SDS011;51401;48.882;12.598;2023-05-06T07:44:41;6.88;;;5.88;;
64903;SDS011;51401;48.882;12.598;2023-05-06T07:47:07;6.68;;;5.10;;
64903;SDS011;51401;48.882;12.598;2023-05-06T07:49:32;8.25;;;6.05;;
64903;SDS011;51401;48.882;12.598;2023-05-06T07:51:59;6.90;;;5.82;;
64903;SDS011;51401;48.882;12.598;2023-05-06T07:54:24;7.00;;;5.72;;
64903;SDS011;51401;48.882;12.598;2023-05-06T07:56:49;7.13;;;6.33;;
64903;SDS011;51401;48.882;12.598;2023-05-06T07:59:15;6.47;;;5.80;;
64903;SDS011;51401;48.882;12.598;2023-05-06T08:01:40;7.18;;;5.80;;
64903;SDS011;51401;48.882;12.598;2023-05-06T08:04:05;6.97;;;5.97;;
64903;SDS011;51401;48.882;12.598;2023-05-06T08:06:31;6.60;;;5.95;;
64903;SDS011;51401;48.882;12.598;2023-05-06T08:08:57;6.60;;;5.90;;
64903;SDS011;51401;48.882;12.598;2023-05-06T08:11:23;6.68;;;5.90;;
64903;SDS011;51401;48.882;12.598;2023-05-06T08:13:48;7.28;;;6.25;;
64903;SDS011;51401;48.882;12.598;2023-05-06T08:16:14;6.80;;;6.10;;
64903;SDS011;51401;48.882;12.598;2023-05-06T08:18:39;8.10;;;6.28;;
64903;SDS011;51401;48.882;12.598;2023-05-06T08:21:04;9.95;;;6.22;;
64903;SDS011;51401;48.882;12.598;2023-05-06T08:23:30;7.15;;;6.15;;
64903;SDS011;51401;48.882;12.598;2023-05-06T08:25:56;7.15;;;6.05;;
64903;SDS011;51401;48.882;12.598;2023-05-06T08:28:21;6.57;;;5.50;;
64903;SDS011;51401;48.882;12.598;2023-05-06T08:30:46;6.20;;;5.60;;
64903;SDS011;51401;48.882;12.598;2023-05-06T08:33:15;7.05;;;6.03;;
64903;SDS011;51401;48.882;12.598;2023-05-06T08:35:40;7.10;;;6.27;;
64903;SDS011;51401;48.882;12.598;2023-05-06T08:38:05;6.53;;;5.93;;
64903;SDS011;51401;48.882;12.598;2023-05-06T08:40:30;6.53;;;5.63;;
64903;SDS011;51401;48.882;12.598;2023-05-06T08:42:57;6.68;;;5.65;;
64903;SDS011;51401;48.882;12.598;2023-05-06T08:45:23;7.05;;;5.97;;
64903;SDS011;51401;48.882;12.598;2023-05-06T08:47:49;6.13;;;5.53;;
64903;SDS011;51401;48.882;12.598;2023-05-06T08:50:14;7.43;;;5.18;;
64903;SDS011;51401;48.882;12.598;2023-05-06T08:52:40;7.22;;;5.90;;
64903;SDS011;51401;48.882;12.598;2023-05-06T08:55:06;7.03;;;6.32;;
64903;SDS011;51401;48.882;12.598;2023-05-06T08:57:33;7.07;;;5.75;;
64903;SDS011;51401;48.882;12.598;2023-05-06T08:59:59;8.75;;;6.78;;
64903;SDS011;51401;48.882;12.598;2023-05-06T09:02:25;6.53;;;5.82;;
64903;SDS011;51401;48.882;12.598;2023-05-06T09:04:52;8.05;;;6.70;;
64903;SDS011;51401;48.882;12.598;2023-05-06T09:07:21;7.13;;;6.43;;
64903;SDS011;51401;48.882;12.598;2023-05-06T09:09:47;6.85;;;5.82;;
64903;SDS011;51401;48.882;12.598;2023-05-06T09:12:13;6.40;;;5.70;;
64903;SDS011;51401;48.882;12.598;2023-05-06T09:14:39;6.32;;;5.60;;
64903;SDS011;51401;48.882;12.598;2023-05-06T09:17:05;5.65;;;4.85;;
64903;SDS011;51401;48.882;12.598;2023-05-06T09:19:47;5.75;;;5.25;;
64903;SDS011;51401;48.882;12.598;2023-05-06T09:22:13;8.30;;;5.95;;
64903;SDS011;51401;48.882;12.598;2023-05-06T09:24:38;6.30;;;5.70;;
64903;SDS011;51401;48.882;12.598;2023-05-06T09:27:03;5.72;;;5.22;;
64903;SDS011;51401;48.882;12.598;2023-05-06T09:29:28;5.47;;;4.97;;
64903;SDS011;51401;48.882;12.598;2023-05-06T09:31:54;6.00;;;5.35;;
64903;SDS011;51401;48.882;12.598;2023-05-06T09:34:20;7.18;;;5.97;;
64903;SDS011;51401;48.882;12.598;2023-05-06T09:36:46;6.70;;;5.88;;
64903;SDS011;51401;48.882;12.598;2023-05-06T09:39:11;6.40;;;5.80;;
64903;SDS011;51401;48.882;12.598;2023-05-06T09:41:37;7.15;;;6.18;;
64903;SDS011;51401;48.882;12.598;2023-05-06T09:44:02;8.57;;;6.20;;
64903;SDS011;51401;48.882;12.598;2023-05-06T09:46:28;6.88;;;6.13;;
64903;SDS011;51401;48.882;12.598;2023-05-06T09:48:55;6.50;;;5.63;;
64903;SDS011;51401;48.882;12.598;2023-05-06T09:51:22;6.55;;;5.85;;
64903;SDS011;51401;48.882;12.598;2023-05-06T09:53:47;6.32;;;5.72;;
64903;SDS011;51401;48.882;12.598;2023-05-06T09:56:13;6.38;;;5.78;;
64903;SDS011;51401;48.882;12.598;2023-05-06T09:58:39;7.72;;;5.07;;
64903;SDS011;51401;48.882;12.598;2023-05-06T10:01:06;5.63;;;4.97;;
64903;SDS011;51401;48.882;12.598;2023-05-06T10:03:33;5.30;;;4.80;;
64903;SDS011;51401;48.882;12.598;2023-05-06T10:06:02;5.20;;;4.40;;
64903;SDS011;51401;48.882;12.598;2023-05-06T10:08:30;4.72;;;4.32;;
64903;SDS011;51401;48.882;12.598;2023-05-06T10:10:57;5.60;;;5.00;;
64903;SDS011;51401;48.882;12.598;2023-05-06T10:13:25;4.60;;;4.20;;
64903;SDS011;51401;48.882;12.598;2023-05-06T10:15:51;4.78;;;4.25;;
64903;SDS011;51401;48.882;12.598;2023-05-06T10:18:17;5.30;;;4.45;;
64903;SDS011;51401;48.882;12.598;2023-05-06T10:20:44;5.30;;;4.80;;
64903;SDS011;51401;48.882;12.598;2023-05-06T10:23:24;5.00;;;4.43;;
64903;SDS011;51401;48.882;12.598;2023-05-06T10:25:55;6.55;;;4.70;;
64903;SDS011;51401;48.882;12.598;2023-05-06T10:28:21;4.88;;;4.28;;
64903;SDS011;51401;48.882;12.598;2023-05-06T10:30:47;5.85;;;4.32;;
64903;SDS011;51401;48.882;12.598;2023-05-06T10:33:15;5.55;;;4.82;;
64903;SDS011;51401;48.882;12.598;2023-05-06T10:40:40;3.33;;;3.03;;
64903;SDS011;51401;48.882;12.598;2023-05-06T10:48:34;3.58;;;3.28;;
64903;SDS011;51401;48.882;12.598;2023-05-06T10:51:20;4.43;;;3.53;;
64903;SDS011;51401;48.882;12.598;2023-05-06T10:56:23;3.92;;;2.60;;
64903;SDS011;51401;48.882;12.598;2023-05-06T10:58:49;2.58;;;2.20;;
64903;SDS011;51401;48.882;12.598;2023-05-06T11:01:14;7.63;;;2.35;;
64903;SDS011;51401;48.882;12.598;2023-05-06T11:03:43;2.72;;;2.42;;
64903;SDS011;51401;48.882;12.598;2023-05-06T11:06:08;3.10;;;2.17;;
64903;SDS011;51401;48.882;12.598;2023-05-06T11:08:34;2.40;;;2.20;;
64903;SDS011;51401;48.882;12.598;2023-05-06T11:10:59;1.95;;;1.65;;
64903;SDS011;51401;48.882;12.598;2023-05-06T11:13:25;2.10;;;1.90;;
64903;SDS011;51401;48.882;12.598;2023-05-06T11:15:55;2.00;;;1.80;;
64903;SDS011;51401;48.882;12.598;2023-05-06T11:26:07;1.55;;;1.40;;
64903;SDS011;51401;48.882;12.598;2023-05-06T11:28:33;1.63;;;1.52;;
64903;SDS011;51401;48.882;12.598;2023-05-06T11:30:59;1.73;;;1.60;;
64903;SDS011;51401;48.882;12.598;2023-05-06T11:33:26;1.70;;;1.40;;
64903;SDS011;51401;48.882;12.598;2023-05-06T11:36:00;2.40;;;1.45;;
64903;SDS011;51401;48.882;12.598;2023-05-06T11:38:26;1.80;;;1.15;;
64903;SDS011;51401;48.882;12.598;2023-05-06T11:41:10;1.48;;;0.98;;
64903;SDS011;51401;48.882;12.598;2023-05-06T11:43:35;1.95;;;1.23;;
64903;SDS011;51401;48.882;12.598;2023-05-06T11:46:01;1.00;;;0.90;;
64903;SDS011;51401;48.882;12.598;2023-05-06T11:48:26;1.17;;;1.08;;
64903;SDS011;51401;48.882;12.598;2023-05-06T11:50:53;2.47;;;1.50;;
64903;SDS011;51401;48.882;12.598;2023-05-06T11:53:19;1.48;;;1.35;;
64903;SDS011;51401;48.882;12.598;2023-05-06T11:55:46;1.33;;;1.00;;
64903;SDS011;51401;48.882;12.598;2023-05-06T11:58:16;1.73;;;1.10;;
64903;SDS011;51401;48.882;12.598;2023-05-06T12:00:48;2.40;;;1.27;;
64903;SDS011;51401;48.882;12.598;2023-05-06T12:03:20;1.35;;;1.10;;
64903;SDS011;51401;48.882;12.598;2023-05-06T12:05:47;1.42;;;1.00;;
64903;SDS011;51401;48.882;12.598;2023-05-06T12:08:24;2.25;;;1.40;;
64903;SDS011;51401;48.882;12.598;2023-05-06T12:10:51;2.00;;;1.80;;
64903;SDS011;51401;48.882;12.598;2023-05-06T12:13:19;1.50;;;1.40;;
64903;SDS011;51401;48.882;12.598;2023-05-06T12:15:45;1.88;;;1.30;;
64903;SDS011;51401;48.882;12.598;2023-05-06T12:18:13;1.52;;;1.40;;
64903;SDS011;51401;48.882;12.598;2023-05-06T12:20:39;1.70;;;1.50;;
64903;SDS011;51401;48.882;12.598;2023-05-06T12:25:30;2.13;;;1.60;;
64903;SDS011;51401;48.882;12.598;2023-05-06T12:27:56;1.50;;;1.13;;
64903;SDS011;51401;48.882;12.598;2023-05-06T12:30:29;2.03;;;1.40;;
64903;SDS011;51401;48.882;12.598;2023-05-06T12:32:58;3.47;;;1.40;;
64903;SDS011;51401;48.882;12.598;2023-05-06T12:35:28;1.77;;;1.38;;
64903;SDS011;51401;48.882;12.598;2023-05-06T12:37:55;1.35;;;1.25;;
64903;SDS011;51401;48.882;12.598;2023-05-06T12:40:20;3.03;;;1.50;;
64903;SDS011;51401;48.882;12.598;2023-05-06T12:42:52;1.85;;;1.38;;
64903;SDS011;51401;48.882;12.598;2023-05-06T12:45:20;2.47;;;1.30;;
64903;SDS011;51401;48.882;12.598;2023-05-06T12:47:56;2.13;;;1.27;;
64903;SDS011;51401;48.882;12.598;2023-05-06T12:52:57;1.20;;;1.10;;
64903;SDS011;51401;48.882;12.598;2023-05-06T12:55:22;2.92;;;1.52;;
64903;SDS011;51401;48.882;12.598;2023-05-06T12:57:49;3.22;;;1.52;;
64903;SDS011;51401;48.882;12.598;2023-05-06T13:00:18;1.95;;;1.20;;
64903;SDS011;51401;48.882;12.598;2023-05-06T13:02:44;2.00;;;1.40;;
64903;SDS011;51401;48.882;12.598;2023-05-06T13:05:10;1.17;;;1.08;;
64903;SDS011;51401;48.882;12.598;2023-05-06T13:07:35;2.20;;;1.30;;
64903;SDS011;51401;48.882;12.598;2023-05-06T13:10:01;1.40;;;1.30;;
64903;SDS011;51401;48.882;12.598;2023-05-06T13:12:27;1.80;;;1.10;;
64903;SDS011;51401;48.882;12.598;2023-05-06T13:14:53;2.00;;;1.10;;
64903;SDS011;51401;48.882;12.598;2023-05-06T13:17:18;2.20;;;1.40;;
64903;SDS011;51401;48.882;12.598;2023-05-06T13:19:43;2.38;;;1.15;;
64903;SDS011;51401;48.882;12.598;2023-05-06T13:22:09;2.15;;;0.90;;
64903;SDS011;51401;48.882;12.598;2023-05-06T13:24:34;2.70;;;1.50;;
64903;SDS011;51401;48.882;12.598;2023-05-06T13:27:00;2.33;;;1.33;;
64903;SDS011;51401;48.882;12.598;2023-05-06T13:29:26;1.35;;;1.17;;
64903;SDS011;51401;48.882;12.598;2023-05-06T13:31:52;1.48;;;1.08;;
64903;SDS011;51401;48.882;12.598;2023-05-06T13:34:18;2.53;;;1.20;;
64903;SDS011;51401;48.882;12.598;2023-05-06T13:36:43;2.20;;;1.25;;
64903;SDS011;51401;48.882;12.598;2023-05-06T13:39:09;2.47;;;1.50;;
64903;SDS011;51401;48.882;12.598;2023-05-06T13:41:34;1.57;;;0.90;;
64903;SDS011;51401;48.882;12.598;2023-05-06T13:43:59;2.45;;;1.20;;
64903;SDS011;51401;48.882;12.598;2023-05-06T13:46:25;2.17;;;1.10;;
64903;SDS011;51401;48.882;12.598;2023-05-06T13:48:53;1.42;;;1.25;;
64903;SDS011;51401;48.882;12.598;2023-05-06T13:51:18;3.83;;;1.47;;
64903;SDS011;51401;48.882;12.598;2023-05-06T13:53:44;1.83;;;1.20;;
64903;SDS011;51401;48.882;12.598;2023-05-06T13:56:09;2.25;;;1.05;;
64903;SDS011;51401;48.882;12.598;2023-05-06T13:58:34;1.30;;;1.20;;
64903;SDS011;51401;48.882;12.598;2023-05-06T14:01:00;1.85;;;1.05;;
64903;SDS011;51401;48.882;12.598;2023-05-06T14:03:25;1.73;;;1.30;;
64903;SDS011;51401;48.882;12.598;2023-05-06T14:05:51;2.00;;;1.27;;
64903;SDS011;51401;48.882;12.598;2023-05-06T14:08:16;1.73;;;1.10;;
64903;SDS011;51401;48.882;12.598;2023-05-06T14:10:42;2.10;;;1.10;;
64903;SDS011;51401;48.882;12.598;2023-05-06T14:13:07;2.03;;;1.40;;
64903;SDS011;51401;48.882;12.598;2023-05-06T14:15:32;1.80;;;1.58;;
64903;SDS011;51401;48.882;12.598;2023-05-06T14:17:58;1.73;;;1.30;;
64903;SDS011;51401;48.882;12.598;2023-05-06T14:20:23;1.73;;;1.38;;
64903;SDS011;51401;48.882;12.598;2023-05-06T14:22:48;1.33;;;1.17;;
64903;SDS011;51401;48.882;12.598;2023-05-06T14:25:14;2.20;;;1.30;;
64903;SDS011;51401;48.882;12.598;2023-05-06T14:27:39;1.15;;;1.05;;
64903;SDS011;51401;48.882;12.598;2023-05-06T14:30:05;1.10;;;1.00;;
64903;SDS011;51401;48.882;12.598;2023-05-06T14:32:31;3.17;;;1.45;;
64903;SDS011;51401;48.882;12.598;2023-05-06T14:34:56;1.20;;;1.08;;
64903;SDS011;51401;48.882;12.598;2023-05-06T14:37:22;1.90;;;1.10;;
64903;SDS011;51401;48.882;12.598;2023-05-06T14:39:47;2.90;;;1.40;;
64903;SDS011;51401;48.882;12.598;2023-05-06T14:42:12;1.27;;;1.17;;
64903;SDS011;51401;48.882;12.598;2023-05-06T14:44:38;1.20;;;1.10;;
64903;SDS011;51401;48.882;12.598;2023-05-06T14:47:03;2.33;;;1.13;;
64903;SDS011;51401;48.882;12.598;2023-05-06T14:49:29;2.65;;;1.67;;
64903;SDS011;51401;48.882;12.598;2023-05-06T14:51:54;1.63;;;1.45;;
64903;SDS011;51401;48.882;12.598;2023-05-06T14:54:21;2.63;;;1.70;;
64903;SDS011;51401;48.882;12.598;2023-05-06T14:56:46;2.08;;;1.40;;